Time,TemperatureF,DewpointF,PressureIn,WindDirection,WindDirectionDegrees,WindSpeedMPH,WindSpeedGustMPH,Humidity,HourlyPrecipIn,Conditions,Clouds,dailyrainin,SoftwareType,DateUTC
2013-02-22 00:01:00,42.8,40.1,30.06,ESE,112,4.2,-999.0,90,-99.99,,,0.00,Acu-Link.com,2013-02-22 05:01:00,
2013-02-22 00:16:00,43.2,40.2,30.08,WSW,247,4.7,-999.0,89,-99.99,,,0.00,Acu-Link.com,2013-02-22 05:16:00,
2013-02-22 00:31:00,43.0,40.0,30.12,NE,45,0.0,-999.0,89,-99.99,,,0.00,Acu-Link.com,2013-02-22 05:31:00,
2013-02-22 00:46:00,42.8,40.4,30.13,West,270,0.0,-999.0,91,-99.99,,,0.00,Acu-Link.com,2013-02-22 05:46:00,
2013-02-22 01:01:00,42.4,40.2,30.11,ESE,112,1.7,-999.0,92,-99.99,,,0.01,Acu-Link.com,2013-02-22 06:01:00,
2013-02-22 01:17:00,42.4,40.5,30.13,NE,45,4.7,-999.0,93,-99.99,,,0.01,Acu-Link.com,2013-02-22 06:17:00,
2013-02-22 01:32:00,42.1,40.5,30.12,WNW,292,1.7,-999.0,94,-99.99,,,0.04,Acu-Link.com,2013-02-22 06:32:00,
2013-02-22 01:47:00,41.9,40.6,30.14,NW,315,1.7,-999.0,95,-99.99,,,0.09,Acu-Link.com,2013-02-22 06:47:00,
2013-02-22 02:02:00,41.7,40.4,30.14,WSW,247,2.2,-999.0,95,-99.99,,,0.12,Acu-Link.com,2013-02-22 07:02:00,
2013-02-22 02:17:00,41.7,40.6,30.13,SSE,157,1.7,-999.0,96,-99.99,,,0.15,Acu-Link.com,2013-02-22 07:17:00,
2013-02-22 02:32:00,41.5,40.7,30.12,NNE,22,3.2,-999.0,97,-99.99,,,0.17,Acu-Link.com,2013-02-22 07:32:00,
2013-02-22 02:47:00,41.5,40.7,30.11,East,90,3.2,-999.0,97,-99.99,,,0.22,Acu-Link.com,2013-02-22 07:47:00,
2013-02-22 03:02:00,41.2,40.4,30.09,ESE,112,1.1,-999.0,97,-99.99,,,0.24,Acu-Link.com,2013-02-22 08:02:00,
2013-02-22 03:17:00,41.0,40.2,30.10,South,180,3.2,-999.0,97,-99.99,,,0.26,Acu-Link.com,2013-02-22 08:17:00,
2013-02-22 03:33:00,41.0,40.2,30.09,ESE,112,2.2,-999.0,97,-99.99,,,0.28,Acu-Link.com,2013-02-22 08:33:00,
2013-02-22 03:48:00,40.5,40.0,30.10,ENE,67,1.7,-999.0,98,-99.99,,,0.29,Acu-Link.com,2013-02-22 08:48:00,
2013-02-22 04:19:00,40.5,40.0,30.09,WNW,292,1.1,-999.0,98,-99.99,,,0.31,Acu-Link.com,2013-02-22 09:19:00,
2013-02-22 04:34:00,40.5,40.0,30.11,WNW,292,0.0,-999.0,98,-99.99,,,0.31,Acu-Link.com,2013-02-22 09:34:00,
2013-02-22 04:50:00,40.1,39.6,30.10,South,180,1.7,-999.0,98,-99.99,,,0.31,Acu-Link.com,2013-02-22 09:50:00,
2013-02-22 05:05:00,40.1,39.6,30.11,NE,45,1.7,-999.0,98,-99.99,,,0.31,Acu-Link.com,2013-02-22 10:05:00,
2013-02-22 05:20:00,39.9,39.4,30.09,North,0,3.2,-999.0,98,-99.99,,,0.31,Acu-Link.com,2013-02-22 10:20:00,
2013-02-22 05:35:00,39.7,39.2,30.10,WNW,292,0.0,-999.0,98,-99.99,,,0.31,Acu-Link.com,2013-02-22 10:35:00,
2013-02-22 05:50:00,39.6,39.1,30.10,ENE,67,3.2,-999.0,98,-99.99,,,0.32,Acu-Link.com,2013-02-22 10:50:00,
2013-02-22 06:05:00,39.4,38.9,30.12,NNW,337,0.0,-999.0,98,-99.99,,,0.32,Acu-Link.com,2013-02-22 11:05:00,
2013-02-22 06:20:00,39.2,38.7,30.10,ESE,112,2.2,-999.0,98,-99.99,,,0.33,Acu-Link.com,2013-02-22 11:20:00,
2013-02-22 06:35:00,39.0,38.5,30.11,SSW,202,2.7,-999.0,98,-99.99,,,0.35,Acu-Link.com,2013-02-22 11:35:00,
2013-02-22 06:51:00,39.0,38.5,30.11,SSE,157,1.7,-999.0,98,-99.99,,,0.36,Acu-Link.com,2013-02-22 11:51:00,
2013-02-22 07:06:00,38.8,38.3,30.11,NW,315,1.7,-999.0,98,-99.99,,,0.37,Acu-Link.com,2013-02-22 12:06:00,
2013-02-22 07:21:00,38.7,38.2,30.10,West,270,2.2,-999.0,98,-99.99,,,0.38,Acu-Link.com,2013-02-22 12:21:00,
2013-02-22 07:36:00,38.5,38.0,30.12,West,270,2.7,-999.0,98,-99.99,,,0.38,Acu-Link.com,2013-02-22 12:36:00,
2013-02-22 07:51:00,38.5,38.0,30.14,NE,45,1.1,-999.0,98,-99.99,,,0.40,Acu-Link.com,2013-02-22 12:51:00,
2013-02-22 08:06:00,38.3,37.8,30.14,West,270,2.2,-999.0,98,-99.99,,,0.41,Acu-Link.com,2013-02-22 13:06:00,
2013-02-22 08:21:00,38.3,37.8,30.14,SE,135,1.1,-999.0,98,-99.99,,,0.41,Acu-Link.com,2013-02-22 13:21:00,
2013-02-22 08:36:00,38.3,37.8,30.13,ENE,67,2.2,-999.0,98,-99.99,,,0.41,Acu-Link.com,2013-02-22 13:36:00,
2013-02-22 08:51:00,38.7,38.2,30.14,ENE,67,2.2,-999.0,98,-99.99,,,0.41,Acu-Link.com,2013-02-22 13:51:00,
2013-02-22 09:07:00,38.8,38.3,30.14,South,180,0.0,-999.0,98,-99.99,,,0.41,Acu-Link.com,2013-02-22 14:07:00,
2013-02-22 09:22:00,39.2,38.7,30.14,SSW,202,0.0,-999.0,98,-99.99,,,0.41,Acu-Link.com,2013-02-22 14:22:00,
2013-02-22 09:37:00,39.4,38.9,30.14,West,270,1.7,-999.0,98,-99.99,,,0.42,Acu-Link.com,2013-02-22 14:37:00,
2013-02-22 09:52:00,39.9,39.4,30.15,NNW,337,0.0,-999.0,98,-99.99,,,0.43,Acu-Link.com,2013-02-22 14:52:00,
2013-02-22 10:07:00,39.9,39.4,30.14,NE,45,1.7,-999.0,98,-99.99,,,0.44,Acu-Link.com,2013-02-22 15:07:00,
2013-02-22 10:22:00,39.7,39.2,30.14,ESE,112,2.7,-999.0,98,-99.99,,,0.44,Acu-Link.com,2013-02-22 15:22:00,
2013-02-22 10:37:00,39.6,39.1,30.14,East,90,1.7,-999.0,98,-99.99,,,0.45,Acu-Link.com,2013-02-22 15:37:00,
2013-02-22 10:52:00,39.6,39.1,30.14,South,180,2.2,-999.0,98,-99.99,,,0.45,Acu-Link.com,2013-02-22 15:52:00,
2013-02-22 11:07:00,39.6,39.1,30.13,SW,225,1.7,-999.0,98,-99.99,,,0.47,Acu-Link.com,2013-02-22 16:07:00,
2013-02-22 11:23:00,39.6,39.1,30.11,NNE,22,1.7,-999.0,98,-99.99,,,0.47,Acu-Link.com,2013-02-22 16:23:00,
2013-02-22 11:38:00,39.9,39.4,30.10,NE,45,4.2,-999.0,98,-99.99,,,0.47,Acu-Link.com,2013-02-22 16:38:00,
2013-02-22 11:53:00,39.7,39.2,30.11,ENE,67,3.7,-999.0,98,-99.99,,,0.47,Acu-Link.com,2013-02-22 16:53:00,
2013-02-22 12:08:00,39.9,39.4,30.10,North,0,1.7,-999.0,98,-99.99,,,0.47,Acu-Link.com,2013-02-22 17:08:00,
2013-02-22 12:23:00,40.1,39.6,30.10,ESE,112,1.1,-999.0,98,-99.99,,,0.47,Acu-Link.com,2013-02-22 17:23:00,
2013-02-22 12:38:00,40.3,39.8,30.09,ESE,112,3.7,-999.0,98,-99.99,,,0.47,Acu-Link.com,2013-02-22 17:38:00,
2013-02-22 12:53:00,40.1,39.6,30.09,NE,45,3.7,-999.0,98,-99.99,,,0.47,Acu-Link.com,2013-02-22 17:53:00,
2013-02-22 13:08:00,40.5,40.0,30.09,West,270,1.7,-999.0,98,-99.99,,,0.47,Acu-Link.com,2013-02-22 18:08:00,
2013-02-22 13:23:00,40.3,39.8,30.08,ESE,112,2.7,-999.0,98,-99.99,,,0.47,Acu-Link.com,2013-02-22 18:23:00,
2013-02-22 13:39:00,40.5,40.0,30.07,WSW,247,0.0,-999.0,98,-99.99,,,0.47,Acu-Link.com,2013-02-22 18:39:00,
2013-02-22 13:54:00,40.5,40.0,30.07,NE,45,0.0,-999.0,98,-99.99,,,0.47,Acu-Link.com,2013-02-22 18:54:00,
2013-02-22 14:09:00,40.6,40.1,30.07,ENE,67,1.1,-999.0,98,-99.99,,,0.48,Acu-Link.com,2013-02-22 19:09:00,
2013-02-22 14:24:00,40.8,40.0,30.06,NE,45,2.2,-999.0,97,-99.99,,,0.48,Acu-Link.com,2013-02-22 19:24:00,
2013-02-22 14:39:00,41.0,40.2,30.05,NE,45,2.2,-999.0,97,-99.99,,,0.48,Acu-Link.com,2013-02-22 19:39:00,
2013-02-22 14:54:00,41.2,40.4,30.05,ENE,67,2.7,-999.0,97,-99.99,,,0.48,Acu-Link.com,2013-02-22 19:54:00,
2013-02-22 15:09:00,40.8,40.0,30.04,NE,45,4.2,-999.0,97,-99.99,,,0.48,Acu-Link.com,2013-02-22 20:09:00,
2013-02-22 15:24:00,40.6,39.8,30.04,West,270,2.7,-999.0,97,-99.99,,,0.48,Acu-Link.com,2013-02-22 20:24:00,
2013-02-22 15:39:00,40.8,40.3,30.03,ENE,67,0.0,-999.0,98,-99.99,,,0.48,Acu-Link.com,2013-02-22 20:39:00,
2013-02-22 15:54:00,41.0,40.5,30.04,NNW,337,1.7,-999.0,98,-99.99,,,0.48,Acu-Link.com,2013-02-22 20:54:00,
2013-02-22 16:10:00,41.0,40.5,30.03,West,270,2.2,-999.0,98,-99.99,,,0.48,Acu-Link.com,2013-02-22 21:10:00,
2013-02-22 16:25:00,40.8,40.3,30.03,ENE,67,0.0,-999.0,98,-99.99,,,0.48,Acu-Link.com,2013-02-22 21:25:00,
2013-02-22 16:40:00,40.8,40.3,30.02,South,180,1.7,-999.0,98,-99.99,,,0.48,Acu-Link.com,2013-02-22 21:40:00,
2013-02-22 16:55:00,41.0,40.5,30.02,ESE,112,2.2,-999.0,98,-99.99,,,0.48,Acu-Link.com,2013-02-22 21:55:00,
2013-02-22 17:10:00,40.8,40.3,30.01,SSE,157,2.7,-999.0,98,-99.99,,,0.48,Acu-Link.com,2013-02-22 22:10:00,
2013-02-22 17:25:00,40.6,40.1,30.02,ENE,67,3.2,-999.0,98,-99.99,,,0.48,Acu-Link.com,2013-02-22 22:25:00,
2013-02-22 17:41:00,40.5,40.0,30.02,NNE,22,1.1,-999.0,98,-99.99,,,0.48,Acu-Link.com,2013-02-22 22:41:00,
2013-02-22 17:56:00,40.3,39.8,30.01,NNE,22,3.7,-999.0,98,-99.99,,,0.49,Acu-Link.com,2013-02-22 22:56:00,
2013-02-22 18:11:00,40.1,39.6,30.02,ESE,112,1.1,-999.0,98,-99.99,,,0.49,Acu-Link.com,2013-02-22 23:11:00,
2013-02-22 18:26:00,40.1,39.6,30.02,East,90,3.7,-999.0,98,-99.99,,,0.49,Acu-Link.com,2013-02-22 23:26:00,
2013-02-22 18:41:00,40.1,39.6,30.01,SE,135,4.2,-999.0,98,-99.99,,,0.49,Acu-Link.com,2013-02-22 23:41:00,
2013-02-22 18:56:00,39.9,39.4,30.03,ESE,112,2.7,-999.0,98,-99.99,,,0.49,Acu-Link.com,2013-02-22 23:56:00,
2013-02-22 19:11:00,40.1,39.6,30.02,ESE,112,4.2,-999.0,98,-99.99,,,0.49,Acu-Link.com,2013-02-23 00:11:00,
2013-02-22 19:26:00,40.1,39.6,30.03,NNE,22,3.2,-999.0,98,-99.99,,,0.49,Acu-Link.com,2013-02-23 00:26:00,
2013-02-22 19:41:00,40.1,39.6,30.03,ENE,67,2.7,-999.0,98,-99.99,,,0.49,Acu-Link.com,2013-02-23 00:41:00,
2013-02-22 19:57:00,39.9,39.4,30.04,East,90,3.7,-999.0,98,-99.99,,,0.49,Acu-Link.com,2013-02-23 00:57:00,
2013-02-22 20:12:00,39.9,39.4,30.02,SW,225,2.2,-999.0,98,-99.99,,,0.49,Acu-Link.com,2013-02-23 01:12:00,
2013-02-22 20:27:00,39.9,39.4,30.03,West,270,0.0,-999.0,98,-99.99,,,0.49,Acu-Link.com,2013-02-23 01:27:00,
2013-02-22 20:42:00,39.9,39.4,30.05,SE,135,0.0,-999.0,98,-99.99,,,0.49,Acu-Link.com,2013-02-23 01:42:00,
2013-02-22 20:57:00,39.9,39.4,30.05,NE,45,0.0,-999.0,98,-99.99,,,0.49,Acu-Link.com,2013-02-23 01:57:00,
2013-02-22 21:12:00,40.1,39.6,30.03,ESE,112,0.0,-999.0,98,-99.99,,,0.49,Acu-Link.com,2013-02-23 02:12:00,
2013-02-22 21:28:00,39.9,39.4,30.04,East,90,2.2,-999.0,98,-99.99,,,0.50,Acu-Link.com,2013-02-23 02:28:00,
2013-02-22 21:43:00,39.7,39.2,30.01,East,90,5.3,-999.0,98,-99.99,,,0.50,Acu-Link.com,2013-02-23 02:43:00,
2013-02-22 21:58:00,39.7,39.2,29.99,NE,45,3.7,-999.0,98,-99.99,,,0.50,Acu-Link.com,2013-02-23 02:58:00,
2013-02-22 22:13:00,39.7,39.2,30.00,NE,45,2.7,-999.0,98,-99.99,,,0.50,Acu-Link.com,2013-02-23 03:13:00,
2013-02-22 22:28:00,39.6,39.1,30.04,WSW,247,0.0,-999.0,98,-99.99,,,0.50,Acu-Link.com,2013-02-23 03:28:00,
2013-02-22 22:43:00,39.6,39.1,30.00,ENE,67,2.2,-999.0,98,-99.99,,,0.51,Acu-Link.com,2013-02-23 03:43:00,
2013-02-22 22:58:00,39.6,39.1,29.99,SSE,157,2.7,-999.0,98,-99.99,,,0.51,Acu-Link.com,2013-02-23 03:58:00,
2013-02-22 23:13:00,39.6,39.1,30.03,WNW,292,0.0,-999.0,98,-99.99,,,0.51,Acu-Link.com,2013-02-23 04:13:00,
2013-02-22 23:29:00,39.7,39.2,30.02,WNW,292,1.1,-999.0,98,-99.99,,,0.51,Acu-Link.com,2013-02-23 04:29:00,
2013-02-22 23:44:00,39.9,39.4,30.02,ESE,112,1.7,-999.0,98,-99.99,,,0.52,Acu-Link.com,2013-02-23 04:44:00,
2013-02-22 23:59:00,39.9,39.4,30.00,East,90,1.1,-999.0,98,-99.99,,,0.54,Acu-Link.com,2013-02-23 04:59:00,